sensor_id;sensor_type;location;lat;lon;timestamp;temperature;humidity
1936;DHT22;969;49.892;10.896;2024-01-15T00:02:17;20.30;54.10
1936;DHT22;969;49.892;10.896;2024-01-15T00:04:43;20.30;54.10
1936;DHT22;969;49.892;10.896;2024-01-15T00:07:08;20.30;54.10
1936;DHT22;969;49.892;10.896;2024-01-15T00:09:35;20.30;54.10
1936;DHT22;969;49.892;10.896;2024-01-15T00:12:01;20.30;54.10
1936;DHT22;969;49.892;10.896;2024-01-15T00:14:27;20.20;54.10
1936;DHT22;969;49.892;10.896;2024-01-15T00:16:53;20.30;54.10
1936;DHT22;969;49.892;10.896;2024-01-15T00:19:21;20.30;54.10
1936;DHT22;969;49.892;10.896;2024-01-15T00:21:46;20.20;54.60
1936;DHT22;969;49.892;10.896;2024-01-15T00:24:12;20.20;54.10
1936;DHT22;969;49.892;10.896;2024-01-15T00:26:39;20.20;54.10
1936;DHT22;969;49.892;10.896;2024-01-15T00:29:06;20.20;54.10
1936;DHT22;969;49.892;10.896;2024-01-15T00:31:32;20.20;54.10
1936;DHT22;969;49.892;10.896;2024-01-15T00:33:57;20.30;54.20
1936;DHT22;969;49.892;10.896;2024-01-15T00:36:23;20.30;54.20
1936;DHT22;969;49.892;10.896;2024-01-15T00:38:48;20.20;54.10
1936;DHT22;969;49.892;10.896;2024-01-15T00:41:14;20.20;54.10
1936;DHT22;969;49.892;10.896;2024-01-15T00:43:40;20.20;54.10
1936;DHT22;969;49.892;10.896;2024-01-15T00:46:06;20.20;54.10
1936;DHT22;969;49.892;10.896;2024-01-15T00:48:32;20.20;54.10
1936;DHT22;969;49.892;10.896;2024-01-15T00:50:58;20.20;54.10
1936;DHT22;969;49.892;10.896;2024-01-15T00:53:23;20.20;54.10
1936;DHT22;969;49.892;10.896;2024-01-15T00:55:50;20.20;54.70
1936;DHT22;969;49.892;10.896;2024-01-15T00:58:15;20.20;54.10
1936;DHT22;969;49.892;10.896;2024-01-15T01:00:41;20.20;54.10
1936;DHT22;969;49.892;10.896;2024-01-15T01:03:07;20.20;54.10
1936;DHT22;969;49.892;10.896;2024-01-15T01:05:34;20.20;54.10
1936;DHT22;969;49.892;10.896;2024-01-15T01:07:59;20.20;54.10
1936;DHT22;969;49.892;10.896;2024-01-15T01:10:25;20.20;54.10
1936;DHT22;969;49.892;10.896;2024-01-15T01:12:50;20.20;54.10
1936;DHT22;969;49.892;10.896;2024-01-15T01:15:16;20.20;54.10
1936;DHT22;969;49.892;10.896;2024-01-15T01:17:42;20.20;54.10
1936;DHT22;969;49.892;10.896;2024-01-15T01:20:08;20.20;54.20
1936;DHT22;969;49.892;10.896;2024-01-15T01:22:34;20.20;54.10
1936;DHT22;969;49.892;10.896;2024-01-15T01:25:00;20.20;54.10
1936;DHT22;969;49.892;10.896;2024-01-15T01:27:26;20.20;54.10
1936;DHT22;969;49.892;10.896;2024-01-15T01:29:51;20.20;54.10
1936;DHT22;969;49.892;10.896;2024-01-15T01:32:17;20.20;54.10
1936;DHT22;969;49.892;10.896;2024-01-15T01:34:43;20.20;54.10
1936;DHT22;969;49.892;10.896;2024-01-15T01:37:09;20.20;54.20
1936;DHT22;969;49.892;10.896;2024-01-15T01:39:35;20.20;54.10
1936;DHT22;969;49.892;10.896;2024-01-15T01:42:01;20.20;54.10
1936;DHT22;969;49.892;10.896;2024-01-15T01:44:27;20.20;54.10
1936;DHT22;969;49.892;10.896;2024-01-15T01:46:53;20.20;54.10
1936;DHT22;969;49.892;10.896;2024-01-15T01:49:18;20.20;54.10
1936;DHT22;969;49.892;10.896;2024-01-15T01:51:44;20.20;54.20
1936;DHT22;969;49.892;10.896;2024-01-15T01:54:11;20.20;54.10
1936;DHT22;969;49.892;10.896;2024-01-15T01:56:40;20.20;54.10
1936;DHT22;969;49.892;10.896;2024-01-15T01:59:06;20.20;54.20
1936;DHT22;969;49.892;10.896;2024-01-15T02:01:33;20.20;54.20
1936;DHT22;969;49.892;10.896;2024-01-15T02:03:59;20.20;54.20
1936;DHT22;969;49.892;10.896;2024-01-15T02:06:25;20.20;54.20
1936;DHT22;969;49.892;10.896;2024-01-15T02:08:51;20.20;54.10
1936;DHT22;969;49.892;10.896;2024-01-15T02:11:16;20.10;54.10
1936;DHT22;969;49.892;10.896;2024-01-15T02:13:42;20.20;54.70
1936;DHT22;969;49.892;10.896;2024-01-15T02:16:08;20.20;54.20
1936;DHT22;969;49.892;10.896;2024-01-15T02:18:44;20.20;54.20
1936;DHT22;969;49.892;10.896;2024-01-15T02:21:10;20.20;54.20
1936;DHT22;969;49.892;10.896;2024-01-15T02:23:36;20.20;54.20
1936;DHT22;969;49.892;10.896;2024-01-15T02:26:03;20.20;54.20
1936;DHT22;969;49.892;10.896;2024-01-15T02:28:29;20.20;54.20
1936;DHT22;969;49.892;10.896;2024-01-15T02:30:55;20.20;54.20
1936;DHT22;969;49.892;10.896;2024-01-15T02:33:20;20.10;54.10
1936;DHT22;969;49.892;10.896;2024-01-15T02:35:46;20.10;54.10
1936;DHT22;969;49.892;10.896;2024-01-15T02:38:12;20.10;54.10
1936;DHT22;969;49.892;10.896;2024-01-15T02:40:38;20.10;54.10
1936;DHT22;969;49.892;10.896;2024-01-15T02:43:04;20.10;54.60
1936;DHT22;969;49.892;10.896;2024-01-15T02:45:29;20.10;54.10
1936;DHT22;969;49.892;10.896;2024-01-15T02:47:55;20.10;54.10
1936;DHT22;969;49.892;10.896;2024-01-15T02:50:21;20.10;54.10
1936;DHT22;969;49.892;10.896;2024-01-15T02:52:47;20.10;54.10
1936;DHT22;969;49.892;10.896;2024-01-15T02:55:12;20.20;54.20
1936;DHT22;969;49.892;10.896;2024-01-15T02:57:38;20.10;54.10
1936;DHT22;969;49.892;10.896;2024-01-15T03:00:04;20.10;54.10
1936;DHT22;969;49.892;10.896;2024-01-15T03:02:29;20.10;54.10
1936;DHT22;969;49.892;10.896;2024-01-15T03:04:57;20.10;54.10
1936;DHT22;969;49.892;10.896;2024-01-15T03:07:22;20.10;54.10
1936;DHT22;969;49.892;10.896;2024-01-15T03:09:48;20.10;54.10
1936;DHT22;969;49.892;10.896;2024-01-15T03:12:14;20.10;54.10
1936;DHT22;969;49.892;10.896;2024-01-15T03:14:39;20.10;54.10
1936;DHT22;969;49.892;10.896;2024-01-15T03:17:05;20.10;54.10
1936;DHT22;969;49.892;10.896;2024-01-15T03:19:34;20.10;54.10
1936;DHT22;969;49.892;10.896;2024-01-15T03:21:59;20.10;54.10
1936;DHT22;969;49.892;10.896;2024-01-15T03:24:26;20.10;54.10
1936;DHT22;969;49.892;10.896;2024-01-15T03:26:52;20.10;54.70
1936;DHT22;969;49.892;10.896;2024-01-15T03:29:17;20.10;54.10
1936;DHT22;969;49.892;10.896;2024-01-15T03:31:43;20.10;54.10
1936;DHT22;969;49.892;10.896;2024-01-15T03:34:08;20.10;54.10
1936;DHT22;969;49.892;10.896;2024-01-15T03:36:34;20.10;54.10
1936;DHT22;969;49.892;10.896;2024-01-15T03:38:59;20.10;54.10
1936;DHT22;969;49.892;10.896;2024-01-15T03:41:25;20.10;54.10
1936;DHT22;969;49.892;10.896;2024-01-15T03:43:51;20.10;54.10
1936;DHT22;969;49.892;10.896;2024-01-15T03:46:16;20.10;54.10
1936;DHT22;969;49.892;10.896;2024-01-15T03:48:42;20.00;54.00
1936;DHT22;969;49.892;10.896;2024-01-15T03:51:07;20.10;54.10
1936;DHT22;969;49.892;10.896;2024-01-15T03:53:33;20.10;54.10
1936;DHT22;969;49.892;10.896;2024-01-15T03:55:58;20.10;54.10
1936;DHT22;969;49.892;10.896;2024-01-15T03:58:24;20.10;54.10
1936;DHT22;969;49.892;10.896;2024-01-15T04:00:49;20.10;54.10
1936;DHT22;969;49.892;10.896;2024-01-15T04:03:15;20.10;54.10
1936;DHT22;969;49.892;10.896;2024-01-15T04:05:41;20.10;54.10
1936;DHT22;969;49.892;10.896;2024-01-15T04:08:06;20.10;54.10
1936;DHT22;969;49.892;10.896;2024-01-15T04:10:32;20.00;54.10
1936;DHT22;969;49.892;10.896;2024-01-15T04:12:57;20.10;54.10
1936;DHT22;969;49.892;10.896;2024-01-15T04:15:25;20.10;54.10
1936;DHT22;969;49.892;10.896;2024-01-15T04:17:52;20.10;54.10
1936;DHT22;969;49.892;10.896;2024-01-15T04:20:17;20.00;54.10
1936;DHT22;969;49.892;10.896;2024-01-15T04:22:43;20.10;54.10
1936;DHT22;969;49.892;10.896;2024-01-15T04:25:09;20.00;54.00
1936;DHT22;969;49.892;10.896;2024-01-15T04:27:35;20.10;54.10
1936;DHT22;969;49.892;10.896;2024-01-15T04:30:00;20.00;54.00
1936;DHT22;969;49.892;10.896;2024-01-15T04:32:26;20.10;54.10
1936;DHT22;969;49.892;10.896;2024-01-15T04:34:52;20.10;54.10
1936;DHT22;969;49.892;10.896;2024-01-15T04:37:17;20.10;54.40
1936;DHT22;969;49.892;10.896;2024-01-15T04:39:43;20.10;54.10
1936;DHT22;969;49.892;10.896;2024-01-15T04:42:08;20.10;54.10
1936;DHT22;969;49.892;10.896;2024-01-15T04:44:34;20.00;54.10
1936;DHT22;969;49.892;10.896;2024-01-15T04:47:00;20.00;54.00
1936;DHT22;969;49.892;10.896;2024-01-15T04:49:25;20.10;54.20
1936;DHT22;969;49.892;10.896;2024-01-15T04:51:55;20.10;54.10
1936;DHT22;969;49.892;10.896;2024-01-15T04:54:20;20.10;54.10
1936;DHT22;969;49.892;10.896;2024-01-15T04:56:46;20.10;54.10
1936;DHT22;969;49.892;10.896;2024-01-15T04:59:13;20.00;54.00
1936;DHT22;969;49.892;10.896;2024-01-15T05:01:40;20.00;54.00
1936;DHT22;969;49.892;10.896;2024-01-15T05:04:05;20.00;54.00
1936;DHT22;969;49.892;10.896;2024-01-15T05:06:31;20.10;54.10
1936;DHT22;969;49.892;10.896;2024-01-15T05:08:57;20.10;54.10
1936;DHT22;969;49.892;10.896;2024-01-15T05:11:23;20.00;54.10
1936;DHT22;969;49.892;10.896;2024-01-15T05:13:48;20.10;54.10
1936;DHT22;969;49.892;10.896;2024-01-15T05:16:14;20.00;54.00
1936;DHT22;969;49.892;10.896;2024-01-15T05:18:40;20.10;54.10
1936;DHT22;969;49.892;10.896;2024-01-15T05:21:05;20.10;54.10
1936;DHT22;969;49.892;10.896;2024-01-15T05:23:31;20.10;54.10
1936;DHT22;969;49.892;10.896;2024-01-15T05:25:57;20.10;54.10
1936;DHT22;969;49.892;10.896;2024-01-15T05:28:23;20.10;54.10
1936;DHT22;969;49.892;10.896;2024-01-15T05:30:48;20.10;54.10
1936;DHT22;969;49.892;10.896;2024-01-15T05:33:16;20.10;54.00
1936;DHT22;969;49.892;10.896;2024-01-15T05:35:41;20.10;54.00
1936;DHT22;969;49.892;10.896;2024-01-15T05:38:07;20.10;54.10
1936;DHT22;969;49.892;10.896;2024-01-15T05:40:33;20.10;54.10
1936;DHT22;969;49.892;10.896;2024-01-15T05:42:58;20.10;54.00
1936;DHT22;969;49.892;10.896;2024-01-15T05:45:25;20.10;54.00
1936;DHT22;969;49.892;10.896;2024-01-15T05:47:51;20.10;53.90
1936;DHT22;969;49.892;10.896;2024-01-15T05:50:17;20.10;54.00
1936;DHT22;969;49.892;10.896;2024-01-15T05:52:42;20.10;53.90
1936;DHT22;969;49.892;10.896;2024-01-15T05:55:08;20.10;53.90
1936;DHT22;969;49.892;10.896;2024-01-15T05:57:35;20.10;53.90
1936;DHT22;969;49.892;10.896;2024-01-15T06:00:01;20.10;53.90
1936;DHT22;969;49.892;10.896;2024-01-15T06:02:26;20.00;53.80
1936;DHT22;969;49.892;10.896;2024-01-15T06:04:52;20.10;54.00
1936;DHT22;969;49.892;10.896;2024-01-15T06:07:17;20.10;54.00
1936;DHT22;969;49.892;10.896;2024-01-15T06:09:43;20.00;53.90
1936;DHT22;969;49.892;10.896;2024-01-15T06:12:09;20.00;53.90
1936;DHT22;969;49.892;10.896;2024-01-15T06:14:34;20.10;54.00
1936;DHT22;969;49.892;10.896;2024-01-15T06:17:00;20.10;54.00
1936;DHT22;969;49.892;10.896;2024-01-15T06:19:25;20.10;54.00
1936;DHT22;969;49.892;10.896;2024-01-15T06:21:51;20.10;54.00
1936;DHT22;969;49.892;10.896;2024-01-15T06:24:16;20.10;54.00
1936;DHT22;969;49.892;10.896;2024-01-15T06:26:46;20.10;54.00
1936;DHT22;969;49.892;10.896;2024-01-15T06:29:12;20.10;54.10
1936;DHT22;969;49.892;10.896;2024-01-15T06:31:37;20.10;54.10
1936;DHT22;969;49.892;10.896;2024-01-15T06:34:03;20.20;54.20
1936;DHT22;969;49.892;10.896;2024-01-15T06:36:28;20.20;54.20
1936;DHT22;969;49.892;10.896;2024-01-15T06:38:54;20.20;54.20
1936;DHT22;969;49.892;10.896;2024-01-15T06:41:20;20.30;54.20
1936;DHT22;969;49.892;10.896;2024-01-15T06:43:45;20.30;54.20
1936;DHT22;969;49.892;10.896;2024-01-15T06:46:11;20.30;54.20
1936;DHT22;969;49.892;10.896;2024-01-15T06:48:36;20.40;54.20
1936;DHT22;969;49.892;10.896;2024-01-15T06:51:02;20.40;54.20
1936;DHT22;969;49.892;10.896;2024-01-15T06:53:28;20.40;54.20
1936;DHT22;969;49.892;10.896;2024-01-15T06:55:53;20.40;54.10
1936;DHT22;969;49.892;10.896;2024-01-15T06:58:19;20.50;54.20
1936;DHT22;969;49.892;10.896;2024-01-15T07:00:44;20.50;54.10
1936;DHT22;969;49.892;10.896;2024-01-15T07:03:10;20.50;54.10
1936;DHT22;969;49.892;10.896;2024-01-15T07:05:36;20.50;54.00
1936;DHT22;969;49.892;10.896;2024-01-15T07:08:02;20.60;54.10
1936;DHT22;969;49.892;10.896;2024-01-15T07:10:28;20.60;54.00
1936;DHT22;969;49.892;10.896;2024-01-15T07:12:54;20.60;54.00
1936;DHT22;969;49.892;10.896;2024-01-15T07:15:20;20.60;54.00
1936;DHT22;969;49.892;10.896;2024-01-15T07:17:45;20.60;53.90
1936;DHT22;969;49.892;10.896;2024-01-15T07:20:11;20.70;54.00
1936;DHT22;969;49.892;10.896;2024-01-15T07:22:37;20.60;53.90
1936;DHT22;969;49.892;10.896;2024-01-15T07:25:02;20.70;54.00
1936;DHT22;969;49.892;10.896;2024-01-15T07:27:30;20.70;54.00
1936;DHT22;969;49.892;10.896;2024-01-15T07:29:56;20.70;53.90
1936;DHT22;969;49.892;10.896;2024-01-15T07:32:22;20.70;53.90
1936;DHT22;969;49.892;10.896;2024-01-15T07:34:48;20.70;53.90
1936;DHT22;969;49.892;10.896;2024-01-15T07:37:13;20.70;53.90
1936;DHT22;969;49.892;10.896;2024-01-15T07:39:39;20.70;53.90
1936;DHT22;969;49.892;10.896;2024-01-15T07:42:05;20.70;53.90
1936;DHT22;969;49.892;10.896;2024-01-15T07:44:31;20.70;53.90
1936;DHT22;969;49.892;10.896;2024-01-15T07:46:56;20.70;53.90
1936;DHT22;969;49.892;10.896;2024-01-15T07:49:22;20.70;53.90
1936;DHT22;969;49.892;10.896;2024-01-15T07:51:49;20.70;53.90
1936;DHT22;969;49.892;10.896;2024-01-15T07:54:14;20.70;53.90
1936;DHT22;969;49.892;10.896;2024-01-15T07:56:56;20.80;53.90
1936;DHT22;969;49.892;10.896;2024-01-15T07:59:21;20.80;53.90
1936;DHT22;969;49.892;10.896;2024-01-15T08:01:47;20.70;53.80
1936;DHT22;969;49.892;10.896;2024-01-15T08:04:13;20.80;53.90
1936;DHT22;969;49.892;10.896;2024-01-15T08:06:39;20.80;53.90
1936;DHT22;969;49.892;10.896;2024-01-15T08:09:04;20.80;53.90
1936;DHT22;969;49.892;10.896;2024-01-15T08:11:30;20.80;53.90
1936;DHT22;969;49.892;10.896;2024-01-15T08:13:56;20.80;53.90
1936;DHT22;969;49.892;10.896;2024-01-15T08:16:22;20.80;53.90
1936;DHT22;969;49.892;10.896;2024-01-15T08:18:49;20.80;53.90
1936;DHT22;969;49.892;10.896;2024-01-15T08:21:15;20.80;53.90
1936;DHT22;969;49.892;10.896;2024-01-15T08:23:40;20.80;53.90
1936;DHT22;969;49.892;10.896;2024-01-15T08:26:12;20.80;53.90
1936;DHT22;969;49.892;10.896;2024-01-15T08:28:38;20.80;53.90
1936;DHT22;969;49.892;10.896;2024-01-15T08:31:04;20.80;53.90
1936;DHT22;969;49.892;10.896;2024-01-15T08:33:29;20.80;53.90
1936;DHT22;969;49.892;10.896;2024-01-15T08:35:55;20.80;53.90
1936;DHT22;969;49.892;10.896;2024-01-15T08:38:21;20.80;53.80
1936;DHT22;969;49.892;10.896;2024-01-15T08:40:46;20.80;53.80
1936;DHT22;969;49.892;10.896;2024-01-15T08:43:12;20.80;53.90
1936;DHT22;969;49.892;10.896;2024-01-15T08:45:38;20.80;53.80
1936;DHT22;969;49.892;10.896;2024-01-15T08:48:04;20.80;53.90
1936;DHT22;969;49.892;10.896;2024-01-15T08:50:30;20.80;53.90
1936;DHT22;969;49.892;10.896;2024-01-15T08:52:57;20.80;53.90
1936;DHT22;969;49.892;10.896;2024-01-15T08:55:23;20.80;53.90
1936;DHT22;969;49.892;10.896;2024-01-15T08:57:49;20.80;53.90
1936;DHT22;969;49.892;10.896;2024-01-15T09:00:15;20.80;53.90
1936;DHT22;969;49.892;10.896;2024-01-15T09:02:40;20.90;54.00
1936;DHT22;969;49.892;10.896;2024-01-15T09:05:07;20.80;53.90
1936;DHT22;969;49.892;10.896;2024-01-15T09:07:32;20.80;53.90
1936;DHT22;969;49.892;10.896;2024-01-15T09:09:58;20.90;54.00
1936;DHT22;969;49.892;10.896;2024-01-15T09:12:27;20.90;54.00
1936;DHT22;969;49.892;10.896;2024-01-15T09:14:53;20.90;54.00
1936;DHT22;969;49.892;10.896;2024-01-15T09:17:20;20.80;53.90
1936;DHT22;969;49.892;10.896;2024-01-15T09:19:45;20.90;54.00
1936;DHT22;969;49.892;10.896;2024-01-15T09:22:12;20.90;54.00
1936;DHT22;969;49.892;10.896;2024-01-15T09:24:40;20.90;54.00
1936;DHT22;969;49.892;10.896;2024-01-15T09:27:07;20.90;54.00
1936;DHT22;969;49.892;10.896;2024-01-15T09:29:32;20.90;54.00
1936;DHT22;969;49.892;10.896;2024-01-15T09:31:58;20.90;54.00
1936;DHT22;969;49.892;10.896;2024-01-15T09:34:24;20.90;54.00
1936;DHT22;969;49.892;10.896;2024-01-15T09:36:49;20.80;53.90
1936;DHT22;969;49.892;10.896;2024-01-15T09:39:15;20.80;53.90
1936;DHT22;969;49.892;10.896;2024-01-15T09:41:41;20.90;54.00
1936;DHT22;969;49.892;10.896;2024-01-15T09:44:07;20.80;53.90
1936;DHT22;969;49.892;10.896;2024-01-15T09:46:35;20.80;53.90
1936;DHT22;969;49.892;10.896;2024-01-15T09:49:01;20.80;53.90
1936;DHT22;969;49.892;10.896;2024-01-15T09:51:31;20.90;54.00
1936;DHT22;969;49.892;10.896;2024-01-15T09:53:58;20.80;53.90
1936;DHT22;969;49.892;10.896;2024-01-15T09:56:24;20.80;53.90
1936;DHT22;969;49.892;10.896;2024-01-15T09:58:50;20.80;53.90
1936;DHT22;969;49.892;10.896;2024-01-15T10:01:21;20.80;53.90
1936;DHT22;969;49.892;10.896;2024-01-15T10:03:47;20.80;53.90
1936;DHT22;969;49.892;10.896;2024-01-15T10:06:17;20.80;53.90
1936;DHT22;969;49.892;10.896;2024-01-15T10:08:47;20.80;54.50
1936;DHT22;969;49.892;10.896;2024-01-15T10:11:13;20.80;53.90
1936;DHT22;969;49.892;10.896;2024-01-15T10:13:39;20.80;53.90
1936;DHT22;969;49.892;10.896;2024-01-15T10:16:05;20.80;53.90
1936;DHT22;969;49.892;10.896;2024-01-15T10:18:31;20.80;53.90
1936;DHT22;969;49.892;10.896;2024-01-15T10:20:57;20.80;53.90
1936;DHT22;969;49.892;10.896;2024-01-15T10:23:24;20.80;54.50
1936;DHT22;969;49.892;10.896;2024-01-15T10:25:49;20.80;53.90
1936;DHT22;969;49.892;10.896;2024-01-15T10:28:17;20.80;53.90
1936;DHT22;969;49.892;10.896;2024-01-15T10:30:44;20.80;54.00
1936;DHT22;969;49.892;10.896;2024-01-15T10:33:10;20.80;53.90
1936;DHT22;969;49.892;10.896;2024-01-15T10:35:37;20.80;53.90
1936;DHT22;969;49.892;10.896;2024-01-15T10:38:04;20.80;53.90
1936;DHT22;969;49.892;10.896;2024-01-15T10:40:31;20.80;53.90
1936;DHT22;969;49.892;10.896;2024-01-15T10:42:56;20.80;53.90
1936;DHT22;969;49.892;10.896;2024-01-15T10:45:23;20.80;53.90
1936;DHT22;969;49.892;10.896;2024-01-15T10:47:48;20.80;53.90
1936;DHT22;969;49.892;10.896;2024-01-15T10:50:14;20.80;54.00
1936;DHT22;969;49.892;10.896;2024-01-15T10:52:40;20.80;54.00
1936;DHT22;969;49.892;10.896;2024-01-15T10:55:07;20.80;54.00
1936;DHT22;969;49.892;10.896;2024-01-15T10:57:39;20.80;54.00
1936;DHT22;969;49.892;10.896;2024-01-15T11:00:05;20.80;54.00
1936;DHT22;969;49.892;10.896;2024-01-15T11:02:33;20.80;54.00
1936;DHT22;969;49.892;10.896;2024-01-15T11:04:59;20.80;54.00
1936;DHT22;969;49.892;10.896;2024-01-15T11:07:26;20.80;54.00
1936;DHT22;969;49.892;10.896;2024-01-15T11:09:52;20.80;54.00
1936;DHT22;969;49.892;10.896;2024-01-15T11:12:18;20.80;54.00
1936;DHT22;969;49.892;10.896;2024-01-15T11:14:51;20.80;54.00
1936;DHT22;969;49.892;10.896;2024-01-15T11:17:18;20.80;54.00
1936;DHT22;969;49.892;10.896;2024-01-15T11:19:45;20.80;54.00
1936;DHT22;969;49.892;10.896;2024-01-15T11:24:56;20.80;54.00
1936;DHT22;969;49.892;10.896;2024-01-15T11:27:40;20.80;54.00
1936;DHT22;969;49.892;10.896;2024-01-15T11:30:11;20.80;54.00
1936;DHT22;969;49.892;10.896;2024-01-15T11:32:37;20.80;54.10
1936;DHT22;969;49.892;10.896;2024-01-15T11:35:07;20.80;54.00
1936;DHT22;969;49.892;10.896;2024-01-15T11:40:20;20.80;54.00
1936;DHT22;969;49.892;10.896;2024-01-15T11:42:46;20.80;54.00
1936;DHT22;969;49.892;10.896;2024-01-15T11:45:18;20.80;54.00
1936;DHT22;969;49.892;10.896;2024-01-15T11:50:44;20.80;54.00
1936;DHT22;969;49.892;10.896;2024-01-15T11:53:21;20.80;54.00
1936;DHT22;969;49.892;10.896;2024-01-15T11:55:51;20.80;54.00
1936;DHT22;969;49.892;10.896;2024-01-15T11:58:17;20.80;54.00
1936;DHT22;969;49.892;10.896;2024-01-15T12:00:44;20.80;54.10
1936;DHT22;969;49.892;10.896;2024-01-15T12:03:10;20.80;54.00
1936;DHT22;969;49.892;10.896;2024-01-15T12:05:40;20.80;54.00
1936;DHT22;969;49.892;10.896;2024-01-15T12:08:07;20.80;54.00
1936;DHT22;969;49.892;10.896;2024-01-15T12:10:37;20.80;54.00
1936;DHT22;969;49.892;10.896;2024-01-15T12:13:11;20.80;54.00
1936;DHT22;969;49.892;10.896;2024-01-15T12:15:38;20.80;54.00
1936;DHT22;969;49.892;10.896;2024-01-15T12:18:07;20.80;54.00
1936;DHT22;969;49.892;10.896;2024-01-15T12:20:33;20.80;54.00
1936;DHT22;969;49.892;10.896;2024-01-15T12:23:00;20.80;54.00
1936;DHT22;969;49.892;10.896;2024-01-15T12:25:25;20.80;54.00
1936;DHT22;969;49.892;10.896;2024-01-15T12:27:54;20.80;54.00
1936;DHT22;969;49.892;10.896;2024-01-15T12:30:20;20.80;54.00
1936;DHT22;969;49.892;10.896;2024-01-15T12:32:46;20.80;54.00
1936;DHT22;969;49.892;10.896;2024-01-15T12:35:15;20.80;54.00
1936;DHT22;969;49.892;10.896;2024-01-15T12:37:43;20.80;54.00
1936;DHT22;969;49.892;10.896;2024-01-15T12:40:10;20.80;54.00
1936;DHT22;969;49.892;10.896;2024-01-15T12:42:36;20.80;54.60
1936;DHT22;969;49.892;10.896;2024-01-15T12:45:03;20.80;54.00
1936;DHT22;969;49.892;10.896;2024-01-15T12:47:30;20.80;54.00
1936;DHT22;969;49.892;10.896;2024-01-15T12:49:57;20.80;54.00
1936;DHT22;969;49.892;10.896;2024-01-15T12:52:26;20.80;54.00
1936;DHT22;969;49.892;10.896;2024-01-15T12:54:52;20.80;54.00
1936;DHT22;969;49.892;10.896;2024-01-15T12:57:18;20.90;54.10
1936;DHT22;969;49.892;10.896;2024-01-15T12:59:44;20.90;54.10
1936;DHT22;969;49.892;10.896;2024-01-15T13:02:11;20.90;54.10
1936;DHT22;969;49.892;10.896;2024-01-15T13:04:37;20.90;54.10
1936;DHT22;969;49.892;10.896;2024-01-15T13:07:04;20.90;54.10
1936;DHT22;969;49.892;10.896;2024-01-15T13:09:30;20.90;54.00
1936;DHT22;969;49.892;10.896;2024-01-15T13:11:55;20.90;54.10
1936;DHT22;969;49.892;10.896;2024-01-15T13:14:21;20.90;54.00
1936;DHT22;969;49.892;10.896;2024-01-15T13:16:47;20.90;54.00
1936;DHT22;969;49.892;10.896;2024-01-15T13:19:12;20.90;54.00
1936;DHT22;969;49.892;10.896;2024-01-15T13:21:41;20.90;54.00
1936;DHT22;969;49.892;10.896;2024-01-15T13:24:07;20.90;54.00
1936;DHT22;969;49.892;10.896;2024-01-15T13:26:33;20.90;54.00
1936;DHT22;969;49.892;10.896;2024-01-15T13:29:05;20.90;54.00
1936;DHT22;969;49.892;10.896;2024-01-15T13:31:34;21.00;54.10
1936;DHT22;969;49.892;10.896;2024-01-15T13:34:00;20.90;54.00
1936;DHT22;969;49.892;10.896;2024-01-15T13:36:26;21.00;54.10
1936;DHT22;969;49.892;10.896;2024-01-15T13:38:52;21.00;54.70
1936;DHT22;969;49.892;10.896;2024-01-15T13:41:20;21.00;54.10
1936;DHT22;969;49.892;10.896;2024-01-15T13:43:49;21.00;54.10
1936;DHT22;969;49.892;10.896;2024-01-15T13:46:16;21.00;54.10
1936;DHT22;969;49.892;10.896;2024-01-15T13:48:43;21.00;54.10
1936;DHT22;969;49.892;10.896;2024-01-15T13:51:08;21.00;54.10
1936;DHT22;969;49.892;10.896;2024-01-15T13:53:34;21.00;54.10
1936;DHT22;969;49.892;10.896;2024-01-15T13:56:00;21.00;54.10
1936;DHT22;969;49.892;10.896;2024-01-15T13:58:26;21.00;54.10
1936;DHT22;969;49.892;10.896;2024-01-15T14:00:51;21.00;54.10
1936;DHT22;969;49.892;10.896;2024-01-15T14:03:17;21.00;54.10
1936;DHT22;969;49.892;10.896;2024-01-15T14:05:44;21.00;54.10
1936;DHT22;969;49.892;10.896;2024-01-15T14:08:10;21.00;54.10
1936;DHT22;969;49.892;10.896;2024-01-15T14:10:36;21.00;54.10
1936;DHT22;969;49.892;10.896;2024-01-15T14:13:03;21.00;54.10
1936;DHT22;969;49.892;10.896;2024-01-15T14:15:28;21.00;54.10
1936;DHT22;969;49.892;10.896;2024-01-15T14:17:54;21.00;54.10
1936;DHT22;969;49.892;10.896;2024-01-15T14:20:20;21.00;54.10
1936;DHT22;969;49.892;10.896;2024-01-15T14:22:45;21.00;54.10
1936;DHT22;969;49.892;10.896;2024-01-15T14:25:11;21.00;54.10
1936;DHT22;969;49.892;10.896;2024-01-15T14:27:36;21.00;54.10
1936;DHT22;969;49.892;10.896;2024-01-15T14:30:03;21.00;54.10
1936;DHT22;969;49.892;10.896;2024-01-15T14:32:28;21.00;54.10
1936;DHT22;969;49.892;10.896;2024-01-15T14:34:54;21.00;54.10
1936;DHT22;969;49.892;10.896;2024-01-15T14:37:22;21.00;54.10
1936;DHT22;969;49.892;10.896;2024-01-15T14:39:47;21.00;54.10
1936;DHT22;969;49.892;10.896;2024-01-15T14:42:13;21.00;54.10
1936;DHT22;969;49.892;10.896;2024-01-15T14:44:39;21.00;54.10
1936;DHT22;969;49.892;10.896;2024-01-15T14:47:06;21.00;54.10
1936;DHT22;969;49.892;10.896;2024-01-15T14:49:32;21.00;54.10
1936;DHT22;969;49.892;10.896;2024-01-15T14:51:57;21.00;54.10
1936;DHT22;969;49.892;10.896;2024-01-15T14:54:23;21.00;54.10
1936;DHT22;969;49.892;10.896;2024-01-15T14:56:48;21.00;54.10
1936;DHT22;969;49.892;10.896;2024-01-15T14:59:14;21.00;54.10
1936;DHT22;969;49.892;10.896;2024-01-15T15:01:40;21.00;54.10
1936;DHT22;969;49.892;10.896;2024-01-15T15:04:07;21.00;54.10
1936;DHT22;969;49.892;10.896;2024-01-15T15:06:33;21.00;54.10
1936;DHT22;969;49.892;10.896;2024-01-15T15:08:59;21.00;54.10
1936;DHT22;969;49.892;10.896;2024-01-15T15:11:25;21.00;54.20
1936;DHT22;969;49.892;10.896;2024-01-15T15:13:51;21.00;54.20
1936;DHT22;969;49.892;10.896;2024-01-15T15:16:17;21.00;54.20
1936;DHT22;969;49.892;10.896;2024-01-15T15:18:43;21.00;54.20
1936;DHT22;969;49.892;10.896;2024-01-15T15:21:09;21.00;54.20
1936;DHT22;969;49.892;10.896;2024-01-15T15:23:35;21.00;54.10
1936;DHT22;969;49.892;10.896;2024-01-15T15:26:01;21.00;54.20
1936;DHT22;969;49.892;10.896;2024-01-15T15:28:27;21.00;54.20
1936;DHT22;969;49.892;10.896;2024-01-15T15:30:52;21.00;54.20
1936;DHT22;969;49.892;10.896;2024-01-15T15:33:18;21.00;54.10
1936;DHT22;969;49.892;10.896;2024-01-15T15:35:44;21.00;54.20
1936;DHT22;969;49.892;10.896;2024-01-15T15:38:09;21.00;54.10
1936;DHT22;969;49.892;10.896;2024-01-15T15:40:35;21.00;54.10
1936;DHT22;969;49.892;10.896;2024-01-15T15:43:01;21.00;54.20
1936;DHT22;969;49.892;10.896;2024-01-15T15:45:27;21.00;54.10
1936;DHT22;969;49.892;10.896;2024-01-15T15:47:53;21.00;54.10
1936;DHT22;969;49.892;10.896;2024-01-15T15:50:18;21.00;54.10
1936;DHT22;969;49.892;10.896;2024-01-15T15:52:44;21.00;54.10
1936;DHT22;969;49.892;10.896;2024-01-15T15:55:10;21.00;54.10
1936;DHT22;969;49.892;10.896;2024-01-15T15:57:36;21.00;54.10
1936;DHT22;969;49.892;10.896;2024-01-15T16:00:01;21.00;54.10
1936;DHT22;969;49.892;10.896;2024-01-15T16:02:27;21.00;54.10
1936;DHT22;969;49.892;10.896;2024-01-15T16:04:53;21.00;54.10